Decoded Metar for LZSL (SLIAC in SLOVAKIA) (IATA:SLD) | Meteo·Mobile Aviation Weather
aviador You're here:

LZSL Decoded Metar

SLIAC in SLOVAKIA
Report Time2018-12-14 11:30:00
UTC Time2018-12-14 11:54:59
Flight Rules vfr VFR
WindVRB at 01 kt
Visibility9999 m
Phenomena:N/A
Clouds:Broken 030 Hf
Expected CloudBase > 1,200 ft AGL from Temp-Dew spread
Ceiling3,000 ft
Temp-4°C (ISA -17)
Dew Point-7°C (80% RH)
AAT-7.2°C
QNH1022 hPa
Density Alt-1,312 ft
Elevation1,027 ft
Report Wrong Elevation
Raw Report
LZSL 141130Z VRB01KT 9999 BKN030 M04/M07 Q1022=

Extra information for LZSL:More info

Metar Taf Metar & Taf Last 4 Metars F.Rules Stats Wind Profile Meteogram Temp Stats Airport Information Weather charts Add Link Nearby VenuesMetar ALERT Operation Metar Decoded Social comments